createdAt,value
2022-10-08T00:12:55.299Z,8.1
2022-10-08T00:27:26.359Z,8.4
2022-10-08T00:41:58.551Z,8.3
2022-10-08T00:56:29.653Z,7.7
2022-10-08T01:10:59.547Z,8.3
2022-10-08T01:25:31.652Z,7.7
2022-10-08T01:40:04.656Z,7.7
2022-10-08T01:54:36.851Z,8.1
2022-10-08T02:09:09.542Z,7.7
2022-10-08T02:23:41.887Z,7.6
2022-10-08T02:38:14.965Z,7.3
2022-10-08T02:52:45.791Z,7.2
2022-10-08T03:07:17.463Z,7.2
2022-10-08T03:21:47.954Z,7.4
2022-10-08T03:36:21.508Z,6.8
2022-10-08T03:50:55.093Z,7
2022-10-08T04:05:26.948Z,7.3
2022-10-08T04:34:36.450Z,8
2022-10-08T04:49:10.261Z,8.3
2022-10-08T05:03:39.625Z,8.6
2022-10-08T05:18:12.468Z,8.9
2022-10-08T05:32:44.934Z,9.2
2022-10-08T05:47:17.136Z,9.4
2022-10-08T06:01:49.866Z,9.2
2022-10-08T06:16:21.050Z,9.3
2022-10-08T06:30:53.979Z,9.6
2022-10-08T06:45:26.450Z,9.7
2022-10-08T06:59:59.222Z,10
2022-10-08T07:14:33.024Z,10.2
2022-10-08T07:29:06.541Z,10.5
2022-10-08T07:43:40.159Z,10.7
2022-10-08T07:58:13.424Z,10.6
2022-10-08T08:12:45.289Z,10.6
2022-10-08T08:27:14.578Z,11.1
2022-10-08T08:41:47.699Z,11.4
2022-10-08T08:56:21.953Z,11.8
2022-10-08T09:10:55.316Z,12.3
2022-10-08T09:25:29.393Z,12.8
2022-10-08T09:40:07.589Z,13.5
2022-10-08T09:54:38.999Z,13.6
2022-10-08T10:09:10.616Z,13.6
2022-10-08T10:23:43.316Z,13.6
2022-10-08T10:38:17.538Z,14.1
2022-10-08T10:52:52.812Z,14.7
2022-10-08T11:07:24.445Z,14.6
2022-10-08T11:21:57.949Z,14.5
2022-10-08T11:36:32.770Z,14
2022-10-08T11:51:05.310Z,14.7
2022-10-08T12:05:40.926Z,15.5
2022-10-08T12:20:15.143Z,15.7
2022-10-08T12:34:47.796Z,15.7
2022-10-08T12:49:20.429Z,15.9
2022-10-08T13:03:52.817Z,15.7
2022-10-08T13:33:03.387Z,15.7
2022-10-08T13:47:38.257Z,16.2
2022-10-08T14:02:12.172Z,16
2022-10-08T14:16:44.597Z,15.9
2022-10-08T14:31:15.061Z,15.9
2022-10-08T14:45:46.125Z,15.9
2022-10-08T15:00:19.169Z,15.9
2022-10-08T15:14:49.410Z,15.1
2022-10-08T15:29:22.743Z,15.2
2022-10-08T15:43:54.215Z,15.1
2022-10-08T15:58:46.045Z,15.1
2022-10-08T16:13:11.188Z,14.8
2022-10-08T16:27:43.566Z,14.6
2022-10-08T16:42:15.652Z,14.4
2022-10-08T16:56:45.821Z,14.1
2022-10-08T17:11:17.510Z,13.8
2022-10-08T17:25:50.382Z,13.3
2022-10-08T17:40:21.493Z,12.9
2022-10-08T17:54:53.404Z,12.5
2022-10-08T18:09:22.735Z,12.3
2022-10-08T18:23:54.255Z,12
2022-10-08T18:38:27.454Z,11.5
2022-10-08T18:53:00.373Z,10.5
2022-10-08T19:07:32.040Z,10.4
2022-10-08T19:22:04.484Z,10.5
2022-10-08T19:36:36.882Z,10.2
2022-10-08T19:51:08.134Z,9.4
2022-10-08T20:05:38.914Z,9.3
2022-10-08T20:20:31.504Z,9.7
2022-10-08T20:34:54.006Z,8.6
2022-10-08T20:49:26.155Z,9
2022-10-08T21:03:58.219Z,8.5
2022-10-08T21:18:29.443Z,8.1
2022-10-08T21:33:02.632Z,8
2022-10-08T21:47:35.585Z,8.3
2022-10-08T22:02:08.187Z,8.2
2022-10-08T22:16:41.022Z,8.2
2022-10-08T22:31:13.044Z,7.9
2022-10-08T22:45:44.350Z,7.6
2022-10-08T23:00:16.446Z,7.4
2022-10-08T23:14:48.822Z,7.2
2022-10-08T23:29:20.928Z,7.2
2022-10-08T23:43:53.237Z,7.3
2022-10-08T23:58:23.893Z,6.4
